Bluewater, New Mexico
Current Conditions -  °F | °C
As of 9:17 PM on Thursday 27 Nov 2014 (Local Time) from KGNT Reporting Station
Clear Clear  
Wind Chill: 19°   Ceiling: Unl
Heat Index: 25°   Visibility: 10mi
Dew Point:   Wind: 5mph
Humidity: 46%   Direction: 320°NW
Pressure: 30.4"   Gusts: NA
Location:  35.26°N, 107.99°W
Report Text: KGNT 280417Z AUTO 32004KT 10SM CLR M04/M14 A3040 RMK AO2
Loading
Personal Weather Stations






























Interactive Weather Map New forecast layout! Learn more

10-Day Weather Forecast

Advertisements
Track Severe Weather on mobile